Time;durP1;ratioP1;P1;durP2;ratioP2;P2;SDS_P1;SDS_P2;PMS_P1;PMS_P2;Temp;Humidity;BMP_temperature;BMP_pressure;BME280_temperature;BME280_humidity;BME280_pressure;Samples;Min_cycle;Max_cycle;Signal;HPM_P1;HPM_P2
2021/05/01 00:00:36;;;;;;;17.30;15.50;;;;;;;;;;5032166;28;20087;-52
2021/05/01 00:03:02;;;;;;;18.65;16.73;;;;;;;;;;5037095;28;20024;-52
2021/05/01 00:05:27;;;;;;;17.98;16.00;;;;;;;;;;5031654;28;20384;-52
2021/05/01 00:07:52;;;;;;;18.90;15.93;;;;;;;;;;5027991;28;20045;-51
2021/05/01 00:10:17;;;;;;;20.33;17.25;;;;;;;;;;5045776;28;20034;-54
2021/05/01 00:12:42;;;;;;;19.55;16.83;;;;;;;;;;5047511;28;20025;-53
2021/05/01 00:15:09;;;;;;;20.70;16.67;;;;;;;;;;5041170;28;20512;-52
2021/05/01 00:17:34;;;;;;;19.60;17.17;;;;;;;;;;5037403;28;20111;-55
2021/05/01 00:20:00;;;;;;;18.90;16.35;;;;;;;;;;5040558;28;20536;-55
2021/05/01 00:22:25;;;;;;;20.58;18.05;;;;;;;;;;5036406;28;20025;-55
2021/05/01 00:24:50;;;;;;;19.95;17.40;;;;;;;;;;5045046;28;20059;-55
2021/05/01 00:27:15;;;;;;;20.33;17.63;;;;;;;;;;5041394;28;20390;-54
2021/05/01 00:29:40;;;;;;;22.05;17.77;;;;;;;;;;5037779;28;20017;-52
2021/05/01 00:32:06;;;;;;;22.55;17.17;;;;;;;;;;5044524;28;20013;-54
2021/05/01 00:34:31;;;;;;;21.02;18.25;;;;;;;;;;5055688;28;20024;-54
2021/05/01 00:36:56;;;;;;;21.27;17.23;;;;;;;;;;5038249;28;20029;-52
2021/05/01 00:39:21;;;;;;;20.65;17.40;;;;;;;;;;5034719;28;20075;-52
2021/05/01 00:41:47;;;;;;;21.58;17.83;;;;;;;;;;5048044;28;20037;-55
2021/05/01 00:44:12;;;;;;;21.05;18.27;;;;;;;;;;5055587;28;20032;-54
2021/05/01 00:46:37;;;;;;;21.25;17.42;;;;;;;;;;5051225;28;20066;-53
2021/05/01 00:49:03;;;;;;;21.48;18.10;;;;;;;;;;5051477;28;20091;-54
2021/05/01 00:51:28;;;;;;;21.52;17.95;;;;;;;;;;5040846;28;20021;-55
2021/05/01 00:53:53;;;;;;;19.70;17.30;;;;;;;;;;5052958;28;20018;-53
2021/05/01 00:56:19;;;;;;;20.25;17.48;;;;;;;;;;5052008;28;20087;-55
2021/05/01 00:58:44;;;;;;;21.30;17.40;;;;;;;;;;5033961;28;20028;-53
2021/05/01 01:03:38;;;;;;;19.92;17.63;;;;;;;;;;5035923;28;20029;-54
2021/05/01 01:06:03;;;;;;;19.55;16.92;;;;;;;;;;5034642;28;20045;-53
2021/05/01 01:08:29;;;;;;;20.77;17.90;;;;;;;;;;5033091;28;20032;-53
2021/05/01 01:10:54;;;;;;;20.55;17.90;;;;;;;;;;5050105;28;20467;-55
2021/05/01 01:13:20;;;;;;;21.55;18.70;;;;;;;;;;5036134;28;20017;-55
2021/05/01 01:15:45;;;;;;;20.00;17.83;;;;;;;;;;5034649;28;20033;-53
2021/05/01 01:18:11;;;;;;;19.70;16.88;;;;;;;;;;5034760;28;20024;-53
2021/05/01 01:20:36;;;;;;;22.08;18.90;;;;;;;;;;5041994;28;20026;-53
2021/05/01 01:23:02;;;;;;;23.65;18.33;;;;;;;;;;5038466;28;20021;-52
2021/05/01 01:25:28;;;;;;;22.13;18.25;;;;;;;;;;5034565;28;20185;-49
2021/05/01 01:27:53;;;;;;;21.90;18.92;;;;;;;;;;5032403;28;20030;-54
2021/05/01 01:30:24;;;;;;;20.48;17.67;;;;;;;;;;5040195;28;20017;-55
2021/05/01 01:32:49;;;;;;;20.17;17.63;;;;;;;;;;5042881;28;20429;-53
2021/05/01 01:35:14;;;;;;;21.77;18.10;;;;;;;;;;5053186;28;20033;-55
2021/05/01 01:37:41;;;;;;;21.48;18.40;;;;;;;;;;5029092;28;20048;-55
2021/05/01 01:40:06;;;;;;;21.75;19.02;;;;;;;;;;5039859;28;20384;-54
2021/05/01 01:42:32;;;;;;;21.90;19.50;;;;;;;;;;5036642;28;20021;-54
2021/05/01 01:44:57;;;;;;;23.55;19.27;;;;;;;;;;5032752;28;20465;-54
2021/05/01 01:47:22;;;;;;;22.50;19.00;;;;;;;;;;5044677;28;20021;-55
2021/05/01 01:49:48;;;;;;;22.70;19.00;;;;;;;;;;5039042;28;20080;-53
2021/05/01 01:52:13;;;;;;;22.92;19.23;;;;;;;;;;5043115;28;20021;-54
2021/05/01 01:54:38;;;;;;;23.92;19.73;;;;;;;;;;5037942;28;20488;-55
2021/05/01 01:57:04;;;;;;;21.92;18.70;;;;;;;;;;5034830;28;20047;-53
2021/05/01 01:59:29;;;;;;;22.10;19.15;;;;;;;;;;5034408;28;20022;-55
2021/05/01 02:01:54;;;;;;;21.27;18.55;;;;;;;;;;5033029;28;20104;-55
2021/05/01 02:04:20;;;;;;;22.88;19.27;;;;;;;;;;5037111;28;20017;-52
2021/05/01 02:06:45;;;;;;;22.88;18.67;;;;;;;;;;5037281;28;20120;-55
2021/05/01 02:09:10;;;;;;;23.65;19.45;;;;;;;;;;5038388;28;20016;-51
2021/05/01 02:11:36;;;;;;;23.48;19.35;;;;;;;;;;5046512;28;20033;-54
2021/05/01 02:14:02;;;;;;;23.50;20.88;;;;;;;;;;5027639;28;20022;-55
2021/05/01 02:16:28;;;;;;;22.35;19.17;;;;;;;;;;5039397;28;20029;-54
2021/05/01 02:18:53;;;;;;;22.83;19.15;;;;;;;;;;5030357;28;20075;-55
2021/05/01 02:21:18;;;;;;;24.17;20.50;;;;;;;;;;5036051;28;20013;-54
2021/05/01 02:23:43;;;;;;;22.92;18.58;;;;;;;;;;5033135;28;20014;-54
2021/05/01 02:26:08;;;;;;;23.17;19.50;;;;;;;;;;5049039;28;20427;-55
2021/05/01 02:28:34;;;;;;;23.17;19.92;;;;;;;;;;5043475;28;20021;-55
2021/05/01 02:30:59;;;;;;;23.95;20.55;;;;;;;;;;5022023;28;20030;-55
2021/05/01 02:33:25;;;;;;;23.55;19.75;;;;;;;;;;5031588;28;20041;-54
2021/05/01 02:35:50;;;;;;;23.83;19.73;;;;;;;;;;5035771;28;20049;-54
2021/05/01 02:38:15;;;;;;;26.05;21.83;;;;;;;;;;5030189;28;20053;-54
2021/05/01 02:40:41;;;;;;;24.17;20.45;;;;;;;;;;5036372;28;20024;-54
2021/05/01 02:43:07;;;;;;;23.00;19.85;;;;;;;;;;5029955;28;20393;-55
2021/05/01 02:45:33;;;;;;;27.17;21.27;;;;;;;;;;5036038;28;20024;-55
2021/05/01 02:47:58;;;;;;;24.15;20.73;;;;;;;;;;5037346;28;20025;-55
2021/05/01 02:50:23;;;;;;;22.95;19.80;;;;;;;;;;5039892;28;20052;-55
2021/05/01 02:52:49;;;;;;;24.92;20.77;;;;;;;;;;5032813;28;20065;-53
2021/05/01 02:55:15;;;;;;;26.02;20.75;;;;;;;;;;5036679;28;20103;-54
2021/05/01 02:57:40;;;;;;;25.55;20.52;;;;;;;;;;5040941;28;20104;-54
2021/05/01 03:00:16;;;;;;;22.73;19.63;;;;;;;;;;5044570;28;20056;-55
2021/05/01 03:02:42;;;;;;;24.92;20.67;;;;;;;;;;5036673;28;20429;-53
2021/05/01 03:05:07;;;;;;;22.85;20.10;;;;;;;;;;5032243;28;20052;-53
2021/05/01 03:07:33;;;;;;;26.42;21.33;;;;;;;;;;5036098;28;20447;-53
2021/05/01 03:09:58;;;;;;;25.23;21.35;;;;;;;;;;5032928;28;20033;-52
2021/05/01 03:12:23;;;;;;;25.48;22.05;;;;;;;;;;5037037;28;20100;-52
2021/05/01 03:14:49;;;;;;;24.33;20.58;;;;;;;;;;5038467;28;20080;-53
2021/05/01 03:17:14;;;;;;;23.48;20.02;;;;;;;;;;5037464;28;20268;-54
2021/05/01 03:19:39;;;;;;;23.80;20.52;;;;;;;;;;5032624;28;20068;-55
2021/05/01 03:22:05;;;;;;;25.85;21.02;;;;;;;;;;5041213;28;20391;-53
2021/05/01 03:24:31;;;;;;;25.73;21.48;;;;;;;;;;5048388;28;20308;-52
2021/05/01 03:26:56;;;;;;;28.25;21.42;;;;;;;;;;5042795;28;20063;-54
2021/05/01 03:29:21;;;;;;;25.67;21.25;;;;;;;;;;5039518;28;20025;-53
2021/05/01 03:31:47;;;;;;;26.33;21.38;;;;;;;;;;5031696;28;20085;-54
2021/05/01 03:34:12;;;;;;;24.40;20.77;;;;;;;;;;5032635;28;20029;-52
2021/05/01 03:36:37;;;;;;;23.63;20.95;;;;;;;;;;5037676;28;20033;-54
2021/05/01 03:39:02;;;;;;;25.60;21.63;;;;;;;;;;5032118;28;20027;-55
2021/05/01 03:41:28;;;;;;;25.63;21.70;;;;;;;;;;5043188;28;20017;-54
2021/05/01 03:43:53;;;;;;;28.20;22.35;;;;;;;;;;5032530;28;20412;-55
2021/05/01 03:46:18;;;;;;;27.38;22.88;;;;;;;;;;5036693;28;20468;-54
2021/05/01 03:48:43;;;;;;;25.20;22.00;;;;;;;;;;5035558;28;20021;-55
2021/05/01 03:51:08;;;;;;;25.65;22.48;;;;;;;;;;5031871;28;20059;-56
2021/05/01 03:53:34;;;;;;;27.15;22.15;;;;;;;;;;5032265;28;20025;-56
2021/05/01 03:56:00;;;;;;;25.48;20.73;;;;;;;;;;5030322;28;20515;-55
2021/05/01 03:58:25;;;;;;;23.73;21.08;;;;;;;;;;5040170;28;20065;-53
2021/05/01 04:00:50;;;;;;;24.88;20.85;;;;;;;;;;5054317;28;20033;-54
2021/05/01 04:03:15;;;;;;;26.38;21.85;;;;;;;;;;5035923;28;20037;-53
2021/05/01 04:05:41;;;;;;;25.23;21.27;;;;;;;;;;5031651;28;20049;-55
2021/05/01 04:08:06;;;;;;;25.88;21.85;;;;;;;;;;5035264;28;20025;-55
2021/05/01 04:10:31;;;;;;;24.35;20.88;;;;;;;;;;5035933;28;20042;-55
2021/05/01 04:12:56;;;;;;;26.95;22.98;;;;;;;;;;5039215;28;20025;-53
2021/05/01 04:15:22;;;;;;;26.83;22.20;;;;;;;;;;5035843;28;20092;-51
2021/05/01 04:17:48;;;;;;;28.10;22.40;;;;;;;;;;5032471;28;20029;-53
2021/05/01 04:20:13;;;;;;;28.52;23.05;;;;;;;;;;5036124;28;20037;-54
2021/05/01 04:22:39;;;;;;;24.60;21.25;;;;;;;;;;5049005;28;20427;-53
2021/05/01 04:25:05;;;;;;;25.05;20.73;;;;;;;;;;5054694;28;20128;-55
2021/05/01 04:27:30;;;;;;;26.40;22.20;;;;;;;;;;5033941;28;20025;-55
2021/05/01 04:29:56;;;;;;;25.95;21.80;;;;;;;;;;5039214;28;20385;-53
2021/05/01 04:32:21;;;;;;;24.90;21.42;;;;;;;;;;5035016;28;20033;-55
2021/05/01 04:34:46;;;;;;;25.25;21.48;;;;;;;;;;5035236;28;20135;-53
2021/05/01 04:37:11;;;;;;;27.23;21.73;;;;;;;;;;5030639;28;20492;-51
2021/05/01 04:39:37;;;;;;;26.13;21.17;;;;;;;;;;5036180;28;20451;-55
2021/05/01 04:42:02;;;;;;;26.67;22.10;;;;;;;;;;5034416;28;20067;-55
2021/05/01 04:44:28;;;;;;;27.55;21.80;;;;;;;;;;5034619;28;20029;-54
2021/05/01 04:46:53;;;;;;;25.77;21.75;;;;;;;;;;5041585;28;20068;-55
2021/05/01 04:49:19;;;;;;;26.80;21.75;;;;;;;;;;5033477;28;20420;-53
2021/05/01 04:51:44;;;;;;;24.65;20.52;;;;;;;;;;5031145;28;20021;-54
2021/05/01 04:54:09;;;;;;;25.05;20.58;;;;;;;;;;5032744;28;20018;-53
2021/05/01 04:56:35;;;;;;;24.10;21.05;;;;;;;;;;5032240;28;20049;-53
2021/05/01 04:59:00;;;;;;;25.83;22.08;;;;;;;;;;5028629;28;20119;-55
2021/05/01 05:01:25;;;;;;;25.00;21.20;;;;;;;;;;5030665;28;20024;-55
2021/05/01 05:03:52;;;;;;;25.40;22.40;;;;;;;;;;5032020;28;20448;-55
2021/05/01 05:06:17;;;;;;;24.15;21.38;;;;;;;;;;5035195;28;20048;-56
2021/05/01 05:08:42;;;;;;;25.33;20.60;;;;;;;;;;5034868;28;20017;-54
2021/05/01 05:11:07;;;;;;;24.70;21.75;;;;;;;;;;5033949;28;20104;-54
2021/05/01 05:13:32;;;;;;;22.80;20.17;;;;;;;;;;5055053;28;20055;-53
2021/05/01 05:15:58;;;;;;;24.67;21.00;;;;;;;;;;5035560;28;20097;-55
2021/05/01 05:18:23;;;;;;;23.17;20.10;;;;;;;;;;5030769;28;20100;-52
2021/05/01 05:20:48;;;;;;;25.42;22.35;;;;;;;;;;5033617;28;20120;-53
2021/05/01 05:23:13;;;;;;;21.92;19.40;;;;;;;;;;5047054;28;20365;-55
2021/05/01 05:25:39;;;;;;;24.63;20.35;;;;;;;;;;5053436;28;20080;-54
2021/05/01 05:28:04;;;;;;;23.95;21.13;;;;;;;;;;5037951;28;20025;-56
2021/05/01 05:30:29;;;;;;;23.10;20.38;;;;;;;;;;5040791;28;20029;-55
2021/05/01 05:32:55;;;;;;;22.70;20.23;;;;;;;;;;5033532;28;20037;-51
2021/05/01 05:35:21;;;;;;;24.55;21.42;;;;;;;;;;5041281;28;20533;-54
2021/05/01 05:37:46;;;;;;;24.70;20.45;;;;;;;;;;5047644;28;20570;-55
2021/05/01 05:40:12;;;;;;;22.60;19.67;;;;;;;;;;5051992;28;20041;-55
2021/05/01 05:42:37;;;;;;;22.10;19.70;;;;;;;;;;5037760;28;20028;-54
2021/05/01 05:45:03;;;;;;;23.13;20.50;;;;;;;;;;5034449;28;20447;-56
2021/05/01 05:47:28;;;;;;;23.30;20.80;;;;;;;;;;5027328;28;20052;-56
2021/05/01 05:49:54;;;;;;;21.30;19.02;;;;;;;;;;5032469;28;20507;-56
2021/05/01 05:52:19;;;;;;;22.45;20.02;;;;;;;;;;5035192;28;20029;-53
2021/05/01 05:54:44;;;;;;;21.48;19.23;;;;;;;;;;5036130;28;20024;-55
2021/05/01 05:57:10;;;;;;;21.52;19.23;;;;;;;;;;5029997;28;20112;-54
2021/05/01 05:59:36;;;;;;;22.20;19.80;;;;;;;;;;5031657;28;20112;-55
2021/05/01 06:02:03;;;;;;;23.50;19.98;;;;;;;;;;5032940;28;20120;-55
2021/05/01 06:04:30;;;;;;;21.77;19.38;;;;;;;;;;5036167;28;20030;-52
2021/05/01 06:07:04;;;;;;;22.00;19.63;;;;;;;;;;5033069;28;20056;-55
2021/05/01 06:09:30;;;;;;;19.33;17.02;;;;;;;;;;5036894;28;20531;-57
2021/05/01 06:11:57;;;;;;;21.25;18.90;;;;;;;;;;5035114;28;20045;-56
2021/05/01 06:14:25;;;;;;;19.10;17.13;;;;;;;;;;5028930;28;20025;-54
2021/05/01 06:16:50;;;;;;;19.10;16.83;;;;;;;;;;5024945;28;20029;-54
2021/05/01 06:19:15;;;;;;;21.73;18.92;;;;;;;;;;5031083;28;20028;-55
2021/05/01 06:21:41;;;;;;;20.05;17.80;;;;;;;;;;5044543;28;20395;-54
2021/05/01 06:24:07;;;;;;;21.30;19.08;;;;;;;;;;5043678;28;20040;-53
2021/05/01 06:26:32;;;;;;;19.60;17.55;;;;;;;;;;5032396;28;20033;-54
2021/05/01 06:28:57;;;;;;;20.83;17.63;;;;;;;;;;5033014;28;20112;-54
2021/05/01 06:31:23;;;;;;;21.75;19.45;;;;;;;;;;5036561;28;20021;-54
2021/05/01 06:33:48;;;;;;;22.48;19.30;;;;;;;;;;5023329;28;20030;-55
2021/05/01 06:36:15;;;;;;;21.05;18.85;;;;;;;;;;5040969;28;20047;-53
2021/05/01 06:38:40;;;;;;;20.60;18.50;;;;;;;;;;5030078;28;20032;-54
2021/05/01 06:41:08;;;;;;;19.55;17.45;;;;;;;;;;5032309;28;20030;-55
2021/05/01 06:43:59;;;;;;;19.65;17.55;;;;;;;;;;5033319;28;20029;-56
2021/05/01 06:46:26;;;;;;;20.75;18.50;;;;;;;;;;5032540;28;20056;-55
2021/05/01 06:48:54;;;;;;;20.58;18.48;;;;;;;;;;5026261;28;20423;-54
2021/05/01 06:51:19;;;;;;;22.10;19.73;;;;;;;;;;5034973;28;20021;-54
2021/05/01 06:53:44;;;;;;;21.35;19.08;;;;;;;;;;5036502;28;20029;-55
2021/05/01 06:56:11;;;;;;;21.13;18.92;;;;;;;;;;5030605;28;20362;-54
2021/05/01 06:58:36;;;;;;;20.55;18.42;;;;;;;;;;5034407;28;20029;-50
2021/05/01 07:01:07;;;;;;;20.77;18.63;;;;;;;;;;5036358;28;20031;-49
2021/05/01 07:03:33;;;;;;;18.10;16.20;;;;;;;;;;5051348;28;20175;-54
2021/05/01 07:06:00;;;;;;;18.50;16.52;;;;;;;;;;5032958;28;20121;-55
2021/05/01 07:08:26;;;;;;;18.70;16.13;;;;;;;;;;5027754;28;20064;-54
2021/05/01 07:10:51;;;;;;;17.55;15.25;;;;;;;;;;5033869;28;20064;-55
2021/05/01 07:13:17;;;;;;;18.60;16.70;;;;;;;;;;5034659;28;20021;-53
2021/05/01 07:15:42;;;;;;;19.25;17.35;;;;;;;;;;5032170;28;20576;-56
2021/05/01 07:18:11;;;;;;;17.90;16.00;;;;;;;;;;5029992;28;20037;-56
2021/05/01 07:20:36;;;;;;;17.70;15.63;;;;;;;;;;5031428;28;20068;-54
2021/05/01 07:23:01;;;;;;;18.73;16.75;;;;;;;;;;5032355;28;20448;-54
2021/05/01 07:25:26;;;;;;;17.58;15.77;;;;;;;;;;5036023;28;20511;-55
2021/05/01 07:27:53;;;;;;;17.77;15.75;;;;;;;;;;5047212;28;20044;-55
2021/05/01 07:30:20;;;;;;;15.95;14.15;;;;;;;;;;5031163;28;20092;-51
2021/05/01 07:32:47;;;;;;;15.25;13.27;;;;;;;;;;5031849;28;20484;-56
2021/05/01 07:35:14;;;;;;;15.50;13.98;;;;;;;;;;5031293;28;20101;-53
2021/05/01 07:37:40;;;;;;;15.15;13.60;;;;;;;;;;5035579;28;20388;-54
2021/05/01 07:40:11;;;;;;;15.23;13.70;;;;;;;;;;5031501;28;20030;-53
2021/05/01 07:42:37;;;;;;;15.27;13.63;;;;;;;;;;5031875;28;20476;-55
2021/05/01 07:45:03;;;;;;;15.13;13.63;;;;;;;;;;5046098;28;20040;-55
2021/05/01 07:47:29;;;;;;;14.50;13.00;;;;;;;;;;5029183;28;20025;-55
2021/05/01 07:49:55;;;;;;;15.40;13.90;;;;;;;;;;5031350;28;20013;-56
2021/05/01 07:52:20;;;;;;;14.75;13.23;;;;;;;;;;5046990;28;20075;-55
2021/05/01 07:54:45;;;;;;;14.00;12.60;;;;;;;;;;5031528;28;20045;-55
2021/05/01 07:57:11;;;;;;;13.00;11.70;;;;;;;;;;5028815;28;20022;-56
2021/05/01 07:59:36;;;;;;;13.13;11.77;;;;;;;;;;5034158;28;20037;-53
2021/05/01 08:02:02;;;;;;;14.15;12.70;;;;;;;;;;5047992;28;20055;-54
2021/05/01 08:04:28;;;;;;;14.60;13.10;;;;;;;;;;5032016;28;20025;-53
2021/05/01 08:06:53;;;;;;;15.52;13.93;;;;;;;;;;5027908;28;20563;-54
2021/05/01 08:09:18;;;;;;;13.80;12.40;;;;;;;;;;5030717;28;20056;-56
2021/05/01 08:11:44;;;;;;;12.85;11.52;;;;;;;;;;5030760;28;20068;-53
2021/05/01 08:14:09;;;;;;;11.77;10.57;;;;;;;;;;5032361;28;20477;-55
2021/05/01 08:16:34;;;;;;;10.85;9.75;;;;;;;;;;5032224;28;20036;-57
2021/05/01 08:19:01;;;;;;;10.93;9.82;;;;;;;;;;5030694;28;20017;-55
2021/05/01 08:21:28;;;;;;;10.10;9.13;;;;;;;;;;5029326;28;20071;-56
2021/05/01 08:23:53;;;;;;;12.15;11.05;;;;;;;;;;5031287;28;20468;-55
2021/05/01 08:26:18;;;;;;;10.50;9.48;;;;;;;;;;5029699;28;20108;-57
2021/05/01 08:28:44;;;;;;;10.30;8.88;;;;;;;;;;5028613;28;20084;-54
2021/05/01 08:31:09;;;;;;;9.20;8.30;;;;;;;;;;5034224;28;20030;-55
2021/05/01 08:33:35;;;;;;;9.57;8.68;;;;;;;;;;5031694;28;20052;-53
2021/05/01 08:36:00;;;;;;;8.32;7.53;;;;;;;;;;5033661;28;20014;-54
2021/05/01 08:38:25;;;;;;;9.45;8.55;;;;;;;;;;5028699;28;20028;-54
2021/05/01 08:40:51;;;;;;;9.23;8.35;;;;;;;;;;5028798;28;20152;-54
2021/05/01 08:43:16;;;;;;;8.55;7.63;;;;;;;;;;5038837;28;20013;-55
2021/05/01 08:45:44;;;;;;;8.85;8.00;;;;;;;;;;5036497;28;20025;-55
2021/05/01 08:48:10;;;;;;;9.65;8.75;;;;;;;;;;5032257;28;20060;-54
2021/05/01 08:50:48;;;;;;;10.80;9.10;;;;;;;;;;5024620;28;20065;-54
2021/05/01 08:53:14;;;;;;;8.95;8.13;;;;;;;;;;5031638;28;20393;-56
2021/05/01 08:55:39;;;;;;;8.65;7.85;;;;;;;;;;5034992;28;20032;-55
2021/05/01 08:58:08;;;;;;;8.90;8.10;;;;;;;;;;5031628;28;20026;-54
2021/05/01 09:00:35;;;;;;;9.25;8.00;;;;;;;;;;5029773;28;20021;-56
2021/05/01 09:03:01;;;;;;;8.23;7.43;;;;;;;;;;5038222;28;20685;-53
2021/05/01 09:05:27;;;;;;;7.43;6.72;;;;;;;;;;5037318;28;20464;-53
2021/05/01 09:07:53;;;;;;;7.57;6.88;;;;;;;;;;5031622;28;20108;-55
2021/05/01 09:10:18;;;;;;;9.32;8.40;;;;;;;;;;5039821;28;20018;-53
2021/05/01 09:12:46;;;;;;;8.15;7.35;;;;;;;;;;5034720;28;20013;-55
2021/05/01 09:15:25;;;;;;;9.48;8.63;;;;;;;;;;5034087;28;20044;-51
2021/05/01 09:18:00;;;;;;;9.35;8.35;;;;;;;;;;5029174;28;20457;-54
2021/05/01 09:20:26;;;;;;;8.88;8.07;;;;;;;;;;5034272;28;20029;-56
2021/05/01 09:22:52;;;;;;;9.10;8.30;;;;;;;;;;5034728;28;20420;-56
2021/05/01 09:25:17;;;;;;;9.52;8.52;;;;;;;;;;5033475;28;20048;-53
2021/05/01 09:27:42;;;;;;;10.45;9.45;;;;;;;;;;5029961;28;20520;-52
2021/05/01 09:30:11;;;;;;;9.13;8.32;;;;;;;;;;5033603;28;20105;-53
2021/05/01 09:32:36;;;;;;;9.10;8.25;;;;;;;;;;5030185;28;20493;-53
2021/05/01 09:35:02;;;;;;;8.13;7.38;;;;;;;;;;5032797;28;20096;-55
2021/05/01 09:37:29;;;;;;;7.78;6.80;;;;;;;;;;5030982;28;20021;-55
2021/05/01 09:39:59;;;;;;;8.05;7.35;;;;;;;;;;5030544;28;20022;-53
2021/05/01 09:42:24;;;;;;;10.88;9.93;;;;;;;;;;5031175;28;20108;-52
2021/05/01 09:45:05;;;;;;;11.57;10.48;;;;;;;;;;5032913;28;20133;-56
2021/05/01 09:47:30;;;;;;;11.43;10.43;;;;;;;;;;5029852;28;20030;-54
2021/05/01 09:49:55;;;;;;;11.95;10.95;;;;;;;;;;5033403;28;20025;-54
2021/05/01 09:52:21;;;;;;;11.07;10.07;;;;;;;;;;5040730;28;20037;-54
2021/05/01 09:54:46;;;;;;;11.15;10.10;;;;;;;;;;5032547;28;20032;-54
2021/05/01 09:57:13;;;;;;;12.07;10.88;;;;;;;;;;5030956;28;20534;-54
2021/05/01 09:59:42;;;;;;;11.77;10.57;;;;;;;;;;5036261;28;20053;-54
2021/05/01 10:02:09;;;;;;;11.30;10.38;;;;;;;;;;5033424;28;20036;-54
2021/05/01 10:04:34;;;;;;;12.00;10.98;;;;;;;;;;5033758;28;20100;-53
2021/05/01 10:07:00;;;;;;;11.13;10.07;;;;;;;;;;5030988;28;20494;-54
2021/05/01 10:09:29;;;;;;;10.90;9.90;;;;;;;;;;5033069;28;20013;-53
2021/05/01 10:12:16;;;;;;;10.23;9.32;;;;;;;;;;5023810;28;20021;-52
2021/05/01 10:14:43;;;;;;;10.27;9.32;;;;;;;;;;5033284;28;20025;-52
2021/05/01 10:17:15;;;;;;;11.07;10.07;;;;;;;;;;5031059;28;20026;-54
2021/05/01 10:19:44;;;;;;;11.10;10.00;;;;;;;;;;5044419;28;20026;-55
2021/05/01 10:22:20;;;;;;;10.18;9.27;;;;;;;;;;5032780;28;20033;-52
2021/05/01 10:24:46;;;;;;;9.93;9.00;;;;;;;;;;5036520;28;20484;-55
2021/05/01 10:27:11;;;;;;;10.55;9.65;;;;;;;;;;5034704;28;20032;-55
2021/05/01 10:29:39;;;;;;;12.18;10.98;;;;;;;;;;5038074;28;20020;-56
2021/05/01 10:32:30;;;;;;;10.25;9.35;;;;;;;;;;5053011;28;20116;-54
2021/05/01 10:34:56;;;;;;;13.68;12.38;;;;;;;;;;5050152;28;20398;-56
2021/05/01 10:37:23;;;;;;;11.52;10.52;;;;;;;;;;5034166;28;20301;-52
2021/05/01 10:39:54;;;;;;;11.55;10.50;;;;;;;;;;5033250;28;20037;-52
2021/05/01 10:42:20;;;;;;;11.60;10.60;;;;;;;;;;5032300;28;20020;-53
2021/05/01 10:44:58;;;;;;;12.90;11.70;;;;;;;;;;5032937;28;20025;-54
2021/05/01 10:47:23;;;;;;;11.38;10.32;;;;;;;;;;5041390;28;20595;-54
2021/05/01 10:49:48;;;;;;;13.18;11.88;;;;;;;;;;5033325;28;20021;-53
2021/05/01 10:52:18;;;;;;;11.35;10.25;;;;;;;;;;5032822;28;20033;-56
2021/05/01 10:54:59;;;;;;;12.10;11.00;;;;;;;;;;5035808;28;20026;-52
2021/05/01 10:57:25;;;;;;;13.77;12.48;;;;;;;;;;5027636;28;20036;-56
2021/05/01 10:59:57;;;;;;;12.20;11.00;;;;;;;;;;5032381;28;20093;-55
2021/05/01 11:02:27;;;;;;;12.15;11.05;;;;;;;;;;5031087;28;20017;-56
2021/05/01 11:04:56;;;;;;;11.73;10.65;;;;;;;;;;5021824;28;20052;-56
2021/05/01 11:07:40;;;;;;;12.93;11.70;;;;;;;;;;5029223;28;20117;-56
2021/05/01 11:10:06;;;;;;;13.52;12.23;;;;;;;;;;5031079;28;20688;-55
2021/05/01 11:12:35;;;;;;;12.20;11.00;;;;;;;;;;5031275;28;20033;-54
2021/05/01 11:15:02;;;;;;;12.10;11.07;;;;;;;;;;5033205;28;20532;-57
2021/05/01 11:17:30;;;;;;;10.68;9.68;;;;;;;;;;5028803;28;20025;-58
2021/05/01 11:19:58;;;;;;;11.13;10.18;;;;;;;;;;5032055;28;20489;-55
2021/05/01 11:22:26;;;;;;;11.18;10.00;;;;;;;;;;5035432;28;20036;-54
2021/05/01 11:24:51;;;;;;;11.00;10.00;;;;;;;;;;5032222;28;20092;-51
2021/05/01 11:27:18;;;;;;;10.38;9.38;;;;;;;;;;5029012;28;20618;-53
2021/05/01 11:29:43;;;;;;;10.05;9.13;;;;;;;;;;5031347;28;20029;-56
2021/05/01 11:32:08;;;;;;;10.23;9.23;;;;;;;;;;5040667;28;20035;-53
2021/05/01 11:34:34;;;;;;;9.38;8.52;;;;;;;;;;5039851;28;20024;-56
2021/05/01 11:37:03;;;;;;;10.07;9.20;;;;;;;;;;5032047;28;20021;-52
2021/05/01 11:39:29;;;;;;;10.35;9.38;;;;;;;;;;5031695;28;20049;-54
2021/05/01 11:41:54;;;;;;;10.90;10.00;;;;;;;;;;5031324;28;20052;-53
2021/05/01 11:44:20;;;;;;;9.30;8.50;;;;;;;;;;5031849;28;20021;-55
2021/05/01 11:46:46;;;;;;;9.63;8.65;;;;;;;;;;5030641;28;20040;-50
2021/05/01 11:49:12;;;;;;;10.02;9.13;;;;;;;;;;5018099;28;20076;-55
2021/05/01 11:51:52;;;;;;;10.93;9.93;;;;;;;;;;5031512;28;20060;-55
2021/05/01 11:54:38;;;;;;;11.65;10.65;;;;;;;;;;5041749;28;20025;-54
2021/05/01 11:57:24;;;;;;;9.63;8.82;;;;;;;;;;5021137;28;20045;-54
2021/05/01 11:59:51;;;;;;;11.02;10.02;;;;;;;;;;5031112;28;20131;-54
2021/05/01 12:02:18;;;;;;;10.95;9.95;;;;;;;;;;5034892;28;20055;-54
2021/05/01 12:04:43;;;;;;;10.73;9.80;;;;;;;;;;5037017;28;20072;-51
2021/05/01 12:07:11;;;;;;;10.25;9.35;;;;;;;;;;5028564;28;20042;-52
2021/05/01 12:09:39;;;;;;;11.07;10.07;;;;;;;;;;5032269;28;20029;-54
2021/05/01 12:12:08;;;;;;;10.65;9.75;;;;;;;;;;5030954;28;20025;-56
2021/05/01 12:14:33;;;;;;;10.48;9.48;;;;;;;;;;5032767;28;20025;-52
2021/05/01 12:17:11;;;;;;;9.65;8.85;;;;;;;;;;5030694;28;20104;-56
2021/05/01 12:19:59;;;;;;;10.50;9.60;;;;;;;;;;5034706;28;20032;-55
2021/05/01 12:22:29;;;;;;;10.40;9.52;;;;;;;;;;5036198;28;20049;-55
2021/05/01 12:24:55;;;;;;;12.57;11.48;;;;;;;;;;5035190;28;20021;-56
2021/05/01 12:27:39;;;;;;;10.73;9.82;;;;;;;;;;5031145;28;20017;-52
2021/05/01 12:30:04;;;;;;;13.05;11.95;;;;;;;;;;5042177;28;20079;-54
2021/05/01 12:32:29;;;;;;;12.50;11.48;;;;;;;;;;5035523;28;20025;-51
2021/05/01 12:34:56;;;;;;;12.75;11.55;;;;;;;;;;5035796;28;20061;-55
2021/05/01 12:37:22;;;;;;;11.77;10.65;;;;;;;;;;5031708;28;20524;-56
2021/05/01 12:39:48;;;;;;;12.20;11.05;;;;;;;;;;5035117;28;20029;-52
2021/05/01 12:42:19;;;;;;;12.15;11.05;;;;;;;;;;5034612;28;20028;-54
2021/05/01 12:44:47;;;;;;;11.80;10.80;;;;;;;;;;5042140;28;20159;-53
2021/05/01 12:47:12;;;;;;;12.50;11.32;;;;;;;;;;5032222;28;20013;-52
2021/05/01 12:49:39;;;;;;;12.63;11.52;;;;;;;;;;5035110;28;20026;-53
2021/05/01 12:52:19;;;;;;;12.40;11.30;;;;;;;;;;5040331;28;20026;-53
2021/05/01 12:54:45;;;;;;;12.98;11.75;;;;;;;;;;5040448;28;20021;-52
2021/05/01 12:57:14;;;;;;;12.75;11.63;;;;;;;;;;5032071;28;20036;-54
2021/05/01 12:59:44;;;;;;;12.63;11.52;;;;;;;;;;5034445;28;20028;-53
2021/05/01 13:02:14;;;;;;;12.82;11.63;;;;;;;;;;5035009;28;20495;-54
2021/05/01 13:04:39;;;;;;;11.73;10.73;;;;;;;;;;5035003;28;20104;-52
2021/05/01 13:07:05;;;;;;;13.38;12.07;;;;;;;;;;5036135;28;20128;-54
2021/05/01 13:09:37;;;;;;;13.57;12.30;;;;;;;;;;5040693;28;20196;-53
2021/05/01 13:12:14;;;;;;;12.88;11.65;;;;;;;;;;5039396;28;20025;-54
2021/05/01 13:14:45;;;;;;;13.77;12.45;;;;;;;;;;5015346;28;20026;-55
2021/05/01 13:17:10;;;;;;;12.93;11.73;;;;;;;;;;5029346;28;20229;-54
2021/05/01 13:19:56;;;;;;;12.63;11.43;;;;;;;;;;5021995;28;20029;-55
2021/05/01 13:22:23;;;;;;;13.32;12.05;;;;;;;;;;5036427;28;20392;-52
2021/05/01 13:25:08;;;;;;;14.18;12.88;;;;;;;;;;5052103;28;20017;-50
2021/05/01 13:27:34;;;;;;;12.63;11.50;;;;;;;;;;5036534;28;20023;-55
2021/05/01 13:30:00;;;;;;;14.70;13.23;;;;;;;;;;5033883;28;20025;-54
2021/05/01 13:32:26;;;;;;;13.18;12.00;;;;;;;;;;5034308;28;20084;-53
2021/05/01 13:34:57;;;;;;;12.98;11.90;;;;;;;;;;5049486;28;20029;-54
2021/05/01 13:37:23;;;;;;;13.68;12.43;;;;;;;;;;5011716;28;20277;-54
2021/05/01 13:39:49;;;;;;;14.13;12.93;;;;;;;;;;5028817;28;20095;-56
2021/05/01 13:42:15;;;;;;;12.80;11.63;;;;;;;;;;5033310;28;20465;-54
2021/05/01 13:44:47;;;;;;;12.65;11.55;;;;;;;;;;5025759;28;20054;-53
2021/05/01 13:47:21;;;;;;;13.30;12.10;;;;;;;;;;5030344;28;20021;-55
2021/05/01 13:49:48;;;;;;;12.73;11.63;;;;;;;;;;5033874;28;20369;-54
2021/05/01 13:52:22;;;;;;;12.25;11.15;;;;;;;;;;5034135;28;20511;-54
2021/05/01 13:54:47;;;;;;;15.73;14.30;;;;;;;;;;5033294;28;20080;-56
2021/05/01 13:57:13;;;;;;;12.27;11.25;;;;;;;;;;5030737;28;20500;-53
2021/05/01 13:59:38;;;;;;;12.18;11.13;;;;;;;;;;5041418;28;20376;-54
2021/05/01 14:02:04;;;;;;;12.02;10.93;;;;;;;;;;5033111;28;20500;-54
2021/05/01 14:04:33;;;;;;;13.35;12.05;;;;;;;;;;5032516;28;20108;-54
2021/05/01 14:06:59;;;;;;;13.07;11.90;;;;;;;;;;5030790;28;20052;-56
2021/05/01 14:09:28;;;;;;;11.85;10.70;;;;;;;;;;5033241;28;20093;-53
2021/05/01 14:11:54;;;;;;;11.93;10.75;;;;;;;;;;5032685;28;20424;-53
2021/05/01 14:14:26;;;;;;;12.75;11.45;;;;;;;;;;5033288;28;20477;-53
2021/05/01 14:16:57;;;;;;;12.95;11.68;;;;;;;;;;5032888;28;20021;-54
2021/05/01 14:19:22;;;;;;;12.15;11.05;;;;;;;;;;5032220;28;20465;-56
2021/05/01 14:21:51;;;;;;;12.55;11.25;;;;;;;;;;5028183;28;20064;-55